• Join FlightAware (Why Join?)
  • Login
  • US Flag 
08:47AM EDT


 

Airport Tracker/Info


-or-


 

Live Flight TrackerFlight Track Log ✈ DAL1550 ✈ 28-Apr-2013 ✈ KLAS - KMSP

Flight Track Log - Related Links

Times and Time Zones

All times are in EDT time to prevent confusion due to time zone crossing. See the DAL1550 flight status page for this flight to view local times or setup timezone preferences in your user account.

Time Position Orientation Groundspeed Altitude Reporting Facility
EDT Latitude Longitude Course Direction KTS MPH feet Rate Location/Type
10:24AM 36.0761 -115.1789 94° East 195 224 3,200  Level Los Angeles Center
10:24AM 36.0767 -115.2106 271° West 201 231 3,800 2,100 Climbing Los Angeles Center
10:25AM 36.0928 -115.2850 285° West 229 264 6,400 2,400 Climbing Los Angeles Center
10:26AM 36.1153 -115.2928 344° North 248 285 7,200 2,220 Climbing Los Angeles Center
10:27AM 36.1833 -114.8838 90° East  Level FlightAware Approximate
10:27AM 36.1719 -115.2606 25° Northeast 255 293 9,600  Level Los Angeles Center
10:28AM 36.1975 -114.7254 94° East  Level FlightAware Approximate
10:28AM 36.1975 -115.1669 71° East 290 334 10,500  Level Los Angeles Center
10:29AM 36.1875 -114.5657 94° East  Level FlightAware Approximate
10:29AM 36.1981 -115.0450 90° East 354 407 11,900  Level Los Angeles Center
10:30AM 36.1981 -114.9089 90° East 390 449 13,600 1,980 Climbing Los Angeles Center
10:31AM 36.1997 -114.7378 89° East 412 474 16,000 1,980 Climbing Los Angeles Center
10:32AM 36.1967 -114.5883 91° East 430 495 17,700 1,860 Climbing Los Angeles Center
10:33AM 36.1950 -114.4361 91° East 441 507 19,800 1,620 Climbing Los Angeles Center
10:34AM 36.1933 -114.2819 91° East 446 513 21,100 1,320 Climbing Los Angeles Center
10:35AM 36.2397 -114.1342 69° East 461 531 22,500 1,320 Climbing Los Angeles Center
10:36AM 36.2853 -113.9844 69° East 464 534 23,900 1,560 Climbing Los Angeles Center
10:37AM 36.3361 -113.8364 67° East 468 539 25,700 1,620 Climbing Los Angeles Center
10:38AM 36.4281 -113.7281 43° Northeast 461 531 27,300 1,560 Climbing Los Angeles Center
10:39AM 36.5228 -113.6233 42° Northeast 447 514 29,000 960 Climbing Los Angeles Center
10:40AM 36.6136 -113.5242 41° Northeast 438 504 29,300 720 Climbing Los Angeles Center
10:41AM 36.7061 -113.4214 42° Northeast 444 511 30,500 780 Climbing Los Angeles Center
10:42AM 36.7983 -113.3194 42° Northeast 445 512 31,000 240 Climbing Los Angeles Center
10:43AM 36.8897 -113.2161 42° Northeast 445 512 31,000  Level Los Angeles Center
10:44AM 37.0000 -113.0931 42° Northeast 445 512 31,000  Level Los Angeles Center
10:45AM 37.0903 -112.9897 42° Northeast 443 510 31,000  Level Los Angeles Center
10:46AM 37.1817 -112.8869 42° Northeast 444 511 31,000  Level Los Angeles Center
10:47AM 37.2731 -112.7836 42° Northeast 445 512 31,000  Level Los Angeles Center
10:48AM 37.3453 -112.7011 42° Northeast 445 512 31,000  Level Los Angeles Center
10:49AM 37.4531 -112.5764 43° Northeast 445 512 31,000  Level Los Angeles Center
10:50AM 37.5614 -112.4511 42° Northeast 448 516 31,000  Level Salt Lake Center
10:51AM 37.6528 -112.3469 42° Northeast 448 516 31,000  Level Salt Lake Center
10:52AM 37.7356 -112.2306 48° Northeast 448 516 31,000  Level Salt Lake Center
10:53AM 37.8069 -112.1011 55° Northeast 450 518 31,000  Level Salt Lake Center
10:54AM 37.8956 -111.9475 54° Northeast 452 520 31,000  Level Salt Lake Center
10:55AM 37.9700 -111.8194 54° Northeast 452 520 31,000  Level Salt Lake Center
10:56AM 38.0431 -111.6911 54° Northeast 451 519 31,000  Level Salt Lake Center
10:57AM 38.1178 -111.5631 53° Northeast 452 520 31,000  Level Salt Lake Center
10:59AM 38.1911 -111.4328 54° Northeast 453 521 31,000  Level Salt Lake Center
11:00AM 38.2644 -111.3047 54° Northeast 451 519 31,000  Level Salt Lake Center
11:01AM 38.3381 -111.1728 55° Northeast 457 526 31,000  Level Salt Lake Center
11:02AM 38.4097 -111.0408 55° Northeast 456 525 31,000  Level Salt Lake Center
11:03AM 38.4881 -110.9047 54° Northeast 453 521 31,000  Level Salt Lake Center
11:04AM 38.5694 -110.7581 55° Northeast 452 520 31,000  Level Salt Lake Center
11:05AM 38.6383 -110.6317 55° Northeast 452 520 31,000  Level Salt Lake Center
11:06AM 38.7206 -110.4856 54° Northeast 453 521 31,000  Level Salt Lake Center
11:07AM 38.7897 -110.3575 55° Northeast 456 525 31,000  Level Salt Lake Center
11:07AM 38.8117 -110.3144 57° Northeast 455 524 31,000  Level Denver Center
11:08AM 38.8817 -110.1867 55° Northeast 457 526 31,000  Level Denver Center
11:09AM 38.9392 -110.0803 55° Northeast 457 526 31,000  Level Salt Lake Center
11:10AM 39.0094 -109.9525 55° Northeast 457 526 31,000  Level Salt Lake Center
11:11AM 39.0883 -109.8028 56° Northeast 454 522 31,000  Level Salt Lake Center
11:11AM 39.1100 -109.7572 58° Northeast 456 525 31,000  Level Denver Center
11:12AM 39.1578 -109.6744 53° Northeast 455 524 31,000  Level Salt Lake Center
11:12AM 39.1797 -109.6292 58° Northeast 457 526 31,000  Level Denver Center
11:13AM 39.2375 -109.5244 55° Northeast 456 525 31,000  Level Salt Lake Center
11:14AM 39.3058 -109.3953 56° Northeast 455 524 31,000  Level Salt Lake Center
11:14AM 39.3281 -109.3500 58° Northeast 454 522 31,000  Level Denver Center
11:15AM 39.4078 -109.2000 55° Northeast 453 521 31,000  Level Denver Center
11:16AM 39.4533 -109.1150 55° Northeast 456 525 31,000  Level Salt Lake Center
11:16AM 39.4761 -109.0711 56° Northeast 454 522 31,000  Level Denver Center
11:17AM 39.5433 -108.9419 56° Northeast 452 520 31,000  Level Denver Center
11:18AM 39.6231 -108.7897 56° Northeast 455 524 31,000  Level Denver Center
11:19AM 39.6981 -108.6469 56° Northeast 460 529 31,000  Level Denver Center
11:20AM 39.7658 -108.5153 56° Northeast 458 527 31,000  Level Denver Center
11:21AM 39.8458 -108.3611 56° Northeast 462 532 31,000  Level Denver Center
11:22AM 39.9136 -108.2278 56° Northeast 460 529 31,000  Level Denver Center
11:24AM 39.9911 -108.0731 57° Northeast 452 520 31,000  Level Denver Center
11:25AM 40.0586 -107.9408 56° Northeast 457 526 31,000  Level Denver Center
11:26AM 40.1247 -107.7736 63° Northeast 462 532 31,000  Level Denver Center
11:27AM 40.1792 -107.6289 64° Northeast 463 533 31,000  Level Denver Center
11:28AM 40.2422 -107.4594 64° Northeast 463 533 31,000  Level Denver Center
11:29AM 40.2981 -107.3153 63° Northeast 463 533 31,000  Level Denver Center
11:30AM 40.3531 -107.1686 64° Northeast 467 537 31,000  Level Denver Center
11:31AM 40.4150 -106.9981 64° Northeast 464 534 31,000  Level Denver Center
11:32AM 40.4717 -106.8519 63° Northeast 468 539 31,000  Level Denver Center
11:33AM 40.5344 -106.6800 64° Northeast 467 537 31,000  Level Denver Center
11:34AM 40.5911 -106.5250 64° Northeast 469 540 31,000  Level Denver Center
11:35AM 40.6608 -106.3356 64° Northeast 469 540 31,000  Level Denver Center
11:36AM 40.7131 -106.1867 65° Northeast 467 537 31,000  Level Denver Center
11:37AM 40.7728 -106.0186 65° Northeast 472 543 31,000  Level Denver Center
11:38AM 40.8294 -105.8606 65° Northeast 474 545 31,000  Level Denver Center
11:39AM 40.8853 -105.7053 65° Northeast 467 537 31,000  Level Denver Center
11:40AM 40.9419 -105.5458 65° Northeast 472 543 31,000  Level Denver Center
11:41AM 41.0064 -105.3614 65° Northeast 469 540 31,000  Level Denver Center
11:42AM 41.0564 -105.2181 65° Northeast 463 533 31,000  Level Denver Center
11:43AM 41.1178 -105.0389 65° Northeast 474 545 31,000  Level Denver Center
11:44AM 41.1706 -104.8850 65° Northeast 477 549 31,000  Level Denver Center
11:45AM 41.2258 -104.7047 68° East 476 548 31,000  Level Denver Center
11:46AM 41.2622 -104.5439 73° East 474 545 31,000  Level Denver Center
11:47AM 41.3053 -104.3653 72° East 461 531 31,000  Level Denver Center
11:48AM 41.3419 -104.2031 73° East 474 545 31,000  Level Denver Center
11:50AM 41.3858 -104.0192 72° East 470 541 31,000  Level Denver Center
11:51AM 41.4217 -103.8586 73° East 473 544 31,000  Level Denver Center
11:52AM 41.4581 -103.6981 73° East 474 545 31,000  Level Denver Center
11:53AM 41.5008 -103.5108 73° East 474 545 31,000  Level Denver Center
11:54AM 41.5367 -103.3506 73° East 473 544 31,000  Level Denver Center
11:55AM 41.5783 -103.1628 73° East 472 543 31,000  Level Denver Center
11:56AM 41.6133 -103.0039 74° East 468 539 31,000  Level Denver Center
11:57AM 41.6544 -102.8169 74° East 471 542 31,000  Level Denver Center
11:58AM 41.6839 -102.6839 73° East 469 540 31,000  Level Denver Center
11:59AM 41.7261 -102.4842 74° East 474 545 31,000  Level Denver Center
12:00PM 41.7650 -102.3069 74° East 473 544 31,000  Level Denver Center
12:01PM 41.8158 -102.1411 68° East 472 543 31,000  Level Denver Center
12:02PM 41.8883 -101.9722 60° Northeast 468 539 31,000  Level Denver Center
12:03PM 41.9497 -101.8269 60° Northeast 468 539 31,000  Level Denver Center
12:04PM 42.0219 -101.6539 61° Northeast 474 545 31,000  Level Denver Center
12:05PM 42.0828 -101.5072 61° Northeast 469 540 31,000  Level Denver Center
12:06PM 42.1439 -101.3592 61° Northeast 472 543 31,000  Level Denver Center
12:07PM 42.2161 -101.1867 60° Northeast 473 544 31,000  Level Denver Center
12:08PM 42.2758 -101.0392 61° Northeast 469 540 31,000 240 Level Denver Center
12:09PM 42.3478 -100.8664 61° Northeast 472 543 31,500 720 Climbing Denver Center
12:10PM 42.4086 -100.7150 61° Northeast 474 545 32,500 720 Climbing Denver Center
12:11PM 42.4783 -100.5428 61° Northeast 469 540 33,000 240 Climbing Denver Center
12:12PM 42.5381 -100.3947 61° Northeast 468 539 33,000  Level Denver Center
12:13PM 42.6056 -100.2197 62° Northeast 468 539 33,000  Level Denver Center
12:14PM 42.6650 -100.0714 61° Northeast 466 536 33,000  Level Denver Center
12:15PM 42.7308 -99.9025 62° Northeast 469 540 33,000  Level Denver Center
12:16PM 42.7917 -99.7467 62° Northeast 468 539 33,000  Level Denver Center
12:17PM 42.8528 -99.5900 62° Northeast 469 540 33,000  Level Denver Center
12:18PM 42.8844 -99.5094 62° Northeast 473 544 33,000  Level Minneapolis Center
12:19PM 42.9469 -99.3508 62° Northeast 473 544 33,000  Level Minneapolis Center
12:20PM 43.0083 -99.1900 62° Northeast 474 545 33,000  Level Minneapolis Center
12:21PM 43.0694 -99.0292 62° Northeast 477 549 33,000  Level Minneapolis Center
12:22PM 43.1353 -98.8592 62° Northeast 477 549 33,000  Level Minneapolis Center
12:23PM 43.1964 -98.6983 62° Northeast 476 548 33,000  Level Minneapolis Center
12:24PM 43.2567 -98.5383 63° Northeast 475 547 33,000  Level Minneapolis Center
12:25PM 43.3167 -98.3803 62° Northeast 471 542 33,000  Level Minneapolis Center
12:26PM 43.3875 -98.1872 63° Northeast 472 543 33,000  Level Minneapolis Center
12:27PM 43.4458 -98.0275 63° Northeast 470 541 33,000  Level Minneapolis Center
12:28PM 43.5053 -97.8711 62° Northeast 465 535 33,000  Level Minneapolis Center
12:29PM 43.5628 -97.7131 63° Northeast 463 533 33,000  Level Minneapolis Center
12:30PM 43.6214 -97.5525 63° Northeast 467 537 33,000  Level Minneapolis Center
12:31PM 43.6794 -97.3919 63° Northeast 468 539 33,000  Level Minneapolis Center
12:32PM 43.7494 -97.1997 63° Northeast 469 540 33,000  Level Minneapolis Center
12:33PM 43.8081 -97.0383 63° Northeast 470 541 33,000  Level Minneapolis Center
12:34PM 43.8653 -96.8783 64° Northeast 467 537 33,000  Level Minneapolis Center
12:35PM 43.9222 -96.7178 64° Northeast 465 535 33,000  Level Minneapolis Center
12:36PM 43.9792 -96.5578 64° Northeast 464 534 33,000  Level Minneapolis Center
12:38PM 44.0475 -96.3636 64° Northeast 469 540 33,000  Level Minneapolis Center
12:39PM 44.1119 -96.1731 65° Northeast 468 539 33,000  Level Minneapolis Center
12:40PM 44.1692 -96.0153 63° Northeast 471 542 33,000  Level Minneapolis Center
12:41PM 44.2247 -95.8539 64° Northeast 468 539 33,000  Level Minneapolis Center
12:42PM 44.2814 -95.6894 64° Northeast 473 544 33,000  Level Minneapolis Center
12:43PM 44.3361 -95.5228 65° Northeast 474 545 33,000 -540 Level Minneapolis Center
12:44PM 44.4022 -95.3269 65° Northeast 468 539 31,900 -2,100 Descending Minneapolis Center
12:45PM 44.4550 -95.1647 65° Northeast 462 532 28,700 -3,360 Descending Minneapolis Center
12:46PM 44.5017 -94.9928 69° East 471 542 25,100 -3,300 Descending Minneapolis Center
12:47PM 44.5433 -94.8167 72° East 476 548 21,900 -3,000 Descending Minneapolis Center
12:48PM 44.5825 -94.6469 72° East 465 535 18,900 -3,000 Descending Minneapolis Center
12:49PM 44.6244 -94.4606 72° East 441 507 15,800 -2,880 Descending Minneapolis Center
12:50PM 44.6592 -94.3089 72° East 412 474 13,100 -2,340 Descending Minneapolis Center
12:51PM 44.6925 -94.1622 72° East 394 453 11,000 -1,080 Descending Minneapolis Center
12:52PM 44.7222 -94.0236 73° East 370 426 10,900 -600 Descending Minneapolis Center
12:53PM 44.7472 -93.9075 73° East 313 360 9,800 -1,260 Descending Minneapolis Center
12:54PM 44.8000 -93.8131 52° Northeast 307 353 8,400 -1,080 Descending Minneapolis Center
12:55PM 44.8583 -93.7456 39° Northeast 269 310 7,700 -720 Descending Minneapolis Center
12:56PM 44.9239 -93.6758 37° Northeast 245 282 7,000 -660 Descending Minneapolis Center
12:57PM 44.9692 -93.6106 46° Northeast 239 275 6,400 -1,020 Descending Minneapolis Center
12:58PM 44.9664 -93.5222 93° East 225 259 4,900 -1,260 Descending Minneapolis Center
12:59PM 44.9533 -93.4394 103° East 217 250 3,900 -1,020 Descending Minneapolis Center